METAR Data
IDs: Format: Raw Decoded Include TAF

Data at: 2055 UTC 17 Nov 2019

METAR for:KHSE (Hatteras/Mitchell Fl, NC, US)
Text:KHSE 172051Z AUTO 02012G23KT 340V050 6SM BR OVC015 15/13 A2977 RMK AO2 PK WND 02030/2035 RAE06 SLP079 P0000 60001 T01500133 55007
Temperature: 15.0°C ( 59°F)
Dewpoint: 13.3°C ( 56°F) [RH = 90%]
Pressure (altimeter):29.77 inches Hg (1008.2 mb) [Sea level pressure: 1007.9 mb]
Winds:from the NNE (20 degrees) at 14 MPH (12 knots; 6.2 m/s) gusting to 26 MPH (23 knots; 11.8 m/s)
Visibility: 6 sm ( 10 km)
Ceiling:1500 feet AGL
Clouds: overcast cloud deck at 1500 feet AGL
Weather:BR (mist)
QC Flag:automated observation with no human augmentation
Text:KHSE 172007Z AUTO 03014G28KT 6SM BR OVC015 15/13 A2976 RMK AO2 PK WND 03030/1954 RAE06 P0000 T01500133
Temperature: 15.0°C ( 59°F)
Dewpoint: 13.3°C ( 56°F) [RH = 90%]
Pressure (altimeter):29.76 inches Hg (1007.9 mb)
Winds:from the NNE (30 degrees) at 16 MPH (14 knots; 7.2 m/s) gusting to 32 MPH (28 knots; 14.4 m/s)
Visibility: 6 sm ( 10 km)
Ceiling:1500 feet AGL
Clouds: overcast cloud deck at 1500 feet AGL
Weather:BR (mist)
QC Flag:automated observation with no human augmentation
Text:KHSE 171951Z AUTO 03013G29KT 360V070 5SM -RA BR OVC014 15/13 A2976 RMK AO2 PK WND 02031/1922 SLP077 P0001 T01500133
Temperature: 15.0°C ( 59°F)
Dewpoint: 13.3°C ( 56°F) [RH = 90%]
Pressure (altimeter):29.76 inches Hg (1007.9 mb) [Sea level pressure: 1007.7 mb]
Winds:from the NNE (30 degrees) at 15 MPH (13 knots; 6.7 m/s) gusting to 33 MPH (29 knots; 14.9 m/s)
Visibility: 5 sm ( 8 km)
Ceiling:1400 feet AGL
Clouds: overcast cloud deck at 1400 feet AGL
Weather:-RA BR (light rain, mist)
QC Flag:automated observation with no human augmentation
Text:KHSE 171934Z AUTO 02015G30KT 4SM -RA BR OVC014 14/13 A2976 RMK AO2 PK WND 02031/1922 P0001 T01440133
Temperature: 14.4°C ( 58°F)
Dewpoint: 13.3°C ( 56°F) [RH = 93%]
Pressure (altimeter):29.76 inches Hg (1007.9 mb)
Winds:from the NNE (20 degrees) at 17 MPH (15 knots; 7.7 m/s) gusting to 34 MPH (30 knots; 15.4 m/s)
Visibility: 4 sm ( 6 km)
Ceiling:1400 feet AGL
Clouds: overcast cloud deck at 1400 feet AGL
Weather:-RA BR (light rain, mist)
QC Flag:automated observation with no human augmentation
Text:KHSE 171908Z AUTO 03015G30KT 360V060 5SM -RA BR OVC015 15/13 A2977 RMK AO2 PK WND 04030/1905 P0000 T01500133
Temperature: 15.0°C ( 59°F)
Dewpoint: 13.3°C ( 56°F) [RH = 90%]
Pressure (altimeter):29.77 inches Hg (1008.2 mb)
Winds:from the NNE (30 degrees) at 17 MPH (15 knots; 7.7 m/s) gusting to 34 MPH (30 knots; 15.4 m/s)
Visibility: 5 sm ( 8 km)
Ceiling:1500 feet AGL
Clouds: overcast cloud deck at 1500 feet AGL
Weather:-RA BR (light rain, mist)
QC Flag:automated observation with no human augmentation
Text:KHSE 171851Z AUTO 02014G27KT 6SM -RA BR OVC014 15/13 A2977 RMK AO2 PK WND 02031/1815 RAB06 SLP081 P0000 T01500133
Temperature: 15.0°C ( 59°F)
Dewpoint: 13.3°C ( 56°F) [RH = 90%]
Pressure (altimeter):29.77 inches Hg (1008.2 mb) [Sea level pressure: 1008.1 mb]
Winds:from the NNE (20 degrees) at 16 MPH (14 knots; 7.2 m/s) gusting to 31 MPH (27 knots; 13.9 m/s)
Visibility: 6 sm ( 10 km)
Ceiling:1400 feet AGL
Clouds: overcast cloud deck at 1400 feet AGL
Weather:-RA BR (light rain, mist)
QC Flag:automated observation with no human augmentation
Text:KHSE 171751Z AUTO 02012G26KT 350V070 6SM BR OVC013 16/13 A2979 RMK AO2 PK WND 03032/1718 SLP087 60028 T01560133 10156 20144 58015
Temperature: 15.6°C ( 60°F)
Dewpoint: 13.3°C ( 56°F) [RH = 86%]
Pressure (altimeter):29.79 inches Hg (1008.9 mb) [Sea level pressure: 1008.7 mb]
Winds:from the NNE (20 degrees) at 14 MPH (12 knots; 6.2 m/s) gusting to 30 MPH (26 knots; 13.4 m/s)
Visibility: 6 sm ( 10 km)
Ceiling:1300 feet AGL
Clouds: overcast cloud deck at 1300 feet AGL
Weather:BR (mist)
QC Flag:automated observation with no human augmentation
Text:KHSE 171651Z AUTO 03014G24KT 350V060 6SM BR OVC011 15/14 A2980 RMK AO2 PK WND 03031/1637 RAE32 SLP092 P0001 T01500139
Temperature: 15.0°C ( 59°F)
Dewpoint: 13.9°C ( 57°F) [RH = 93%]
Pressure (altimeter):29.80 inches Hg (1009.2 mb) [Sea level pressure: 1009.2 mb]
Winds:from the NNE (30 degrees) at 16 MPH (14 knots; 7.2 m/s) gusting to 28 MPH (24 knots; 12.3 m/s)
Visibility: 6 sm ( 10 km)
Ceiling:1100 feet AGL
Clouds: overcast cloud deck at 1100 feet AGL
Weather:BR (mist)
QC Flag:automated observation with no human augmentation
Text:KHSE 171625Z AUTO 03011G26KT 350V060 5SM -RA BR OVC010 15/14 A2982 RMK AO2 PK WND 02027/1552 P0001 T01500139
Temperature: 15.0°C ( 59°F)
Dewpoint: 13.9°C ( 57°F) [RH = 93%]
Pressure (altimeter):29.82 inches Hg (1009.9 mb)
Winds:from the NNE (30 degrees) at 13 MPH (11 knots; 5.7 m/s) gusting to 30 MPH (26 knots; 13.4 m/s)
Visibility: 5 sm ( 8 km)
Ceiling:1000 feet AGL
Clouds: overcast cloud deck at 1000 feet AGL
Weather:-RA BR (light rain, mist)
QC Flag:automated observation with no human augmentation
Text:KHSE 171616Z AUTO 03012G24KT 010V070 4SM -RA BR BKN008 OVC012 14/14 A2982 RMK AO2 PK WND 02027/1552 P0001 T01440139
Temperature: 14.4°C ( 58°F)
Dewpoint: 13.9°C ( 57°F) [RH = 97%]
Pressure (altimeter):29.82 inches Hg (1009.9 mb)
Winds:from the NNE (30 degrees) at 14 MPH (12 knots; 6.2 m/s) gusting to 28 MPH (24 knots; 12.3 m/s)
Visibility: 4 sm ( 6 km)
Ceiling:800 feet AGL
Clouds: broken clouds at 800 feet AGL, overcast cloud deck at 1200 feet AGL
Weather:-RA BR (light rain, mist)
QC Flag:automated observation with no human augmentation
Text:KHSE 171551Z AUTO 03013G26KT 2 1/2SM -RA BR OVC008 14/14 A2983 RMK AO2 PK WND 02030/1519 SLP101 P0007 T01440139
Temperature: 14.4°C ( 58°F)
Dewpoint: 13.9°C ( 57°F) [RH = 97%]
Pressure (altimeter):29.83 inches Hg (1010.2 mb) [Sea level pressure: 1010.1 mb]
Winds:from the NNE (30 degrees) at 15 MPH (13 knots; 6.7 m/s) gusting to 30 MPH (26 knots; 13.4 m/s)
Visibility: 2.50 sm ( 4.02 km)
Ceiling:800 feet AGL
Clouds: overcast cloud deck at 800 feet AGL
Weather:-RA BR (light rain, mist)
QC Flag:automated observation with no human augmentation
Text:KHSE 171549Z AUTO 02014G29KT 3SM -RA BR OVC008 14/14 A2983 RMK AO2 PK WND 02030/1519 P0007
Temperature: 14.0°C ( 57°F)
Dewpoint: 14.0°C ( 57°F) [RH = 100%]
Pressure (altimeter):29.83 inches Hg (1010.2 mb)
Winds:from the NNE (20 degrees) at 16 MPH (14 knots; 7.2 m/s) gusting to 33 MPH (29 knots; 14.9 m/s)
Visibility: 3 sm ( 5 km)
Ceiling:800 feet AGL
Clouds: overcast cloud deck at 800 feet AGL
Weather:-RA BR (light rain, mist)
QC Flag:automated observation with no human augmentation
Text:KHSE 171541Z AUTO 03017G30KT 2 1/2SM -RA BR BKN008 OVC012 14/14 A2983 RMK AO2 PK WND 02030/1519 P0007 T01440139
Temperature: 14.4°C ( 58°F)
Dewpoint: 13.9°C ( 57°F) [RH = 97%]
Pressure (altimeter):29.83 inches Hg (1010.2 mb)
Winds:from the NNE (30 degrees) at 20 MPH (17 knots; 8.7 m/s) gusting to 34 MPH (30 knots; 15.4 m/s)
Visibility: 2.50 sm ( 4.02 km)
Ceiling:800 feet AGL
Clouds: broken clouds at 800 feet AGL, overcast cloud deck at 1200 feet AGL
Weather:-RA BR (light rain, mist)
QC Flag:automated observation with no human augmentation
Text:KHSE 171518Z AUTO 02011G24KT 340V060 1 3/4SM RA BR OVC008 14/14 A2983 RMK AO2 P0005 T01440139
Temperature: 14.4°C ( 58°F)
Dewpoint: 13.9°C ( 57°F) [RH = 97%]
Pressure (altimeter):29.83 inches Hg (1010.2 mb)
Winds:from the NNE (20 degrees) at 13 MPH (11 knots; 5.7 m/s) gusting to 28 MPH (24 knots; 12.3 m/s)
Visibility: 1.75 sm ( 2.82 km)
Ceiling:800 feet AGL
Clouds: overcast cloud deck at 800 feet AGL
Weather:RA BR (moderate rain, mist)
QC Flag:automated observation with no human augmentation
Text:KHSE 171451Z AUTO 03014G25KT 2 1/2SM -RA BR OVC009 14/14 A2984 RMK AO2 PK WND 02027/1407 SLP104 P0001 60020 T01440139 52001
Temperature: 14.4°C ( 58°F)
Dewpoint: 13.9°C ( 57°F) [RH = 97%]
Pressure (altimeter):29.84 inches Hg (1010.6 mb) [Sea level pressure: 1010.4 mb]
Winds:from the NNE (30 degrees) at 16 MPH (14 knots; 7.2 m/s) gusting to 29 MPH (25 knots; 12.9 m/s)
Visibility: 2.50 sm ( 4.02 km)
Ceiling:900 feet AGL
Clouds: overcast cloud deck at 900 feet AGL
Weather:-RA BR (light rain, mist)
QC Flag:automated observation with no human augmentation
Text:KHSE 171408Z AUTO 03012G27KT 350V060 4SM -RA BR OVC009 14/14 A2985 RMK AO2 PK WND 02027/1407 P0000 T01440139
Temperature: 14.4°C ( 58°F)
Dewpoint: 13.9°C ( 57°F) [RH = 97%]
Pressure (altimeter):29.85 inches Hg (1010.9 mb)
Winds:from the NNE (30 degrees) at 14 MPH (12 knots; 6.2 m/s) gusting to 31 MPH (27 knots; 13.9 m/s)
Visibility: 4 sm ( 6 km)
Ceiling:900 feet AGL
Clouds: overcast cloud deck at 900 feet AGL
Weather:-RA BR (light rain, mist)
QC Flag:automated observation with no human augmentation
Text:KHSE 171351Z AUTO 02014G27KT 3SM -RA BR OVC010 14/14 A2984 RMK AO2 PK WND 02029/1306 SLP105 P0008 T01440139
Temperature: 14.4°C ( 58°F)
Dewpoint: 13.9°C ( 57°F) [RH = 97%]
Pressure (altimeter):29.84 inches Hg (1010.6 mb) [Sea level pressure: 1010.5 mb]
Winds:from the NNE (20 degrees) at 16 MPH (14 knots; 7.2 m/s) gusting to 31 MPH (27 knots; 13.9 m/s)
Visibility: 3 sm ( 5 km)
Ceiling:1000 feet AGL
Clouds: overcast cloud deck at 1000 feet AGL
Weather:-RA BR (light rain, mist)
QC Flag:automated observation with no human augmentation
Text:KHSE 171339Z AUTO 02010G26KT 350V060 4SM -RA BR OVC009 14/14 A2984 RMK AO2 PK WND 02029/1306 P0007 T01440139
Temperature: 14.4°C ( 58°F)
Dewpoint: 13.9°C ( 57°F) [RH = 97%]
Pressure (altimeter):29.84 inches Hg (1010.6 mb)
Winds:from the NNE (20 degrees) at 12 MPH (10 knots; 5.1 m/s) gusting to 30 MPH (26 knots; 13.4 m/s)
Visibility: 4 sm ( 6 km)
Ceiling:900 feet AGL
Clouds: overcast cloud deck at 900 feet AGL
Weather:-RA BR (light rain, mist)
QC Flag:automated observation with no human augmentation
Text:KHSE 171315Z AUTO 03013G29KT 360V070 2 1/2SM RA BR BKN009 OVC013 14/14 A2984 RMK AO2 PK WND 02029/1306 P0006 T01440139
Temperature: 14.4°C ( 58°F)
Dewpoint: 13.9°C ( 57°F) [RH = 97%]
Pressure (altimeter):29.84 inches Hg (1010.6 mb)
Winds:from the NNE (30 degrees) at 15 MPH (13 knots; 6.7 m/s) gusting to 33 MPH (29 knots; 14.9 m/s)
Visibility: 2.50 sm ( 4.02 km)
Ceiling:900 feet AGL
Clouds: broken clouds at 900 feet AGL, overcast cloud deck at 1300 feet AGL
Weather:RA BR (moderate rain, mist)
QC Flag:automated observation with no human augmentation
Text:KHSE 171307Z AUTO 03013G29KT 2SM RA BR OVC011 15/14 A2984 RMK AO2 PK WND 02029/1306 P0003 T01500144
Temperature: 15.0°C ( 59°F)
Dewpoint: 14.4°C ( 58°F) [RH = 96%]
Pressure (altimeter):29.84 inches Hg (1010.6 mb)
Winds:from the NNE (30 degrees) at 15 MPH (13 knots; 6.7 m/s) gusting to 33 MPH (29 knots; 14.9 m/s)
Visibility: 2.00 sm ( 3.22 km)
Ceiling:1100 feet AGL
Clouds: overcast cloud deck at 1100 feet AGL
Weather:RA BR (moderate rain, mist)
QC Flag:automated observation with no human augmentation
Text:KHSE 171301Z AUTO 02013G24KT 1 3/4SM RA BR OVC009 15/14 A2984 RMK AO2 P0002 T01500144
Temperature: 15.0°C ( 59°F)
Dewpoint: 14.4°C ( 58°F) [RH = 96%]
Pressure (altimeter):29.84 inches Hg (1010.6 mb)
Winds:from the NNE (20 degrees) at 15 MPH (13 knots; 6.7 m/s) gusting to 28 MPH (24 knots; 12.3 m/s)
Visibility: 1.75 sm ( 2.82 km)
Ceiling:900 feet AGL
Clouds: overcast cloud deck at 900 feet AGL
Weather:RA BR (moderate rain, mist)
QC Flag:automated observation with no human augmentation
Text:KHSE 171251Z AUTO 03018G30KT 2SM RA BR OVC009 15/14 A2984 RMK AO2 PK WND 03030/1250 SLP103 P0011 T01500139
Temperature: 15.0°C ( 59°F)
Dewpoint: 13.9°C ( 57°F) [RH = 93%]
Pressure (altimeter):29.84 inches Hg (1010.6 mb) [Sea level pressure: 1010.3 mb]
Winds:from the NNE (30 degrees) at 21 MPH (18 knots; 9.3 m/s) gusting to 34 MPH (30 knots; 15.4 m/s)
Visibility: 2.00 sm ( 3.22 km)
Ceiling:900 feet AGL
Clouds: overcast cloud deck at 900 feet AGL
Weather:RA BR (moderate rain, mist)
QC Flag:automated observation with no human augmentation
Text:KHSE 171246Z AUTO 03012G25KT 2SM RA BR OVC009 15/14 A2984 RMK AO2 PK WND 02030/1203 P0010
Temperature: 15.0°C ( 59°F)
Dewpoint: 14.0°C ( 57°F) [RH = 94%]
Pressure (altimeter):29.84 inches Hg (1010.6 mb)
Winds:from the NNE (30 degrees) at 14 MPH (12 knots; 6.2 m/s) gusting to 29 MPH (25 knots; 12.9 m/s)
Visibility: 2.00 sm ( 3.22 km)
Ceiling:900 feet AGL
Clouds: overcast cloud deck at 900 feet AGL
Weather:RA BR (moderate rain, mist)
QC Flag:automated observation with no human augmentation
Text:KHSE 171227Z AUTO 03013G27KT 1 3/4SM RA BR OVC009 15/14 A2984 RMK AO2 PK WND 02030/1203 P0005 T01500139
Temperature: 15.0°C ( 59°F)
Dewpoint: 13.9°C ( 57°F) [RH = 93%]
Pressure (altimeter):29.84 inches Hg (1010.6 mb)
Winds:from the NNE (30 degrees) at 15 MPH (13 knots; 6.7 m/s) gusting to 31 MPH (27 knots; 13.9 m/s)
Visibility: 1.75 sm ( 2.82 km)
Ceiling:900 feet AGL
Clouds: overcast cloud deck at 900 feet AGL
Weather:RA BR (moderate rain, mist)
QC Flag:automated observation with no human augmentation
Text:KHSE 171213Z AUTO 03012G28KT 340V050 2SM -RA BR OVC009 15/14 A2984 RMK AO2 PK WND 02030/1203 P0002 T01500139
Temperature: 15.0°C ( 59°F)
Dewpoint: 13.9°C ( 57°F) [RH = 93%]
Pressure (altimeter):29.84 inches Hg (1010.6 mb)
Winds:from the NNE (30 degrees) at 14 MPH (12 knots; 6.2 m/s) gusting to 32 MPH (28 knots; 14.4 m/s)
Visibility: 2.00 sm ( 3.22 km)
Ceiling:900 feet AGL
Clouds: overcast cloud deck at 900 feet AGL
Weather:-RA BR (light rain, mist)
QC Flag:automated observation with no human augmentation
Text:KHSE 171151Z AUTO 03015G28KT 4SM -RA BR OVC009 15/14 A2983 RMK AO2 PK WND 03036/1101 SLP101 P0004 60010 70021 T01500139 10150 20144 53004
Temperature: 15.0°C ( 59°F)
Dewpoint: 13.9°C ( 57°F) [RH = 93%]
Pressure (altimeter):29.83 inches Hg (1010.2 mb) [Sea level pressure: 1010.1 mb]
Winds:from the NNE (30 degrees) at 17 MPH (15 knots; 7.7 m/s) gusting to 32 MPH (28 knots; 14.4 m/s)
Visibility: 4 sm ( 6 km)
Ceiling:900 feet AGL
Clouds: overcast cloud deck at 900 feet AGL
Weather:-RA BR (light rain, mist)
QC Flag:automated observation with no human augmentation
Text:KHSE 171139Z AUTO 03016G25KT 4SM -RA BR OVC009 15/14 A2983 RMK AO2 PK WND 03036/1101 P0003 T01500139
Temperature: 15.0°C ( 59°F)
Dewpoint: 13.9°C ( 57°F) [RH = 93%]
Pressure (altimeter):29.83 inches Hg (1010.2 mb)
Winds:from the NNE (30 degrees) at 18 MPH (16 knots; 8.2 m/s) gusting to 29 MPH (25 knots; 12.9 m/s)
Visibility: 4 sm ( 6 km)
Ceiling:900 feet AGL
Clouds: overcast cloud deck at 900 feet AGL
Weather:-RA BR (light rain, mist)
QC Flag:automated observation with no human augmentation
Text:KHSE 171051Z AUTO 03013G28KT 3SM RA BR OVC010 15/14 A2982 RMK AO2 PK WND 02034/1005 SLP098 P0004 T01500139
Temperature: 15.0°C ( 59°F)
Dewpoint: 13.9°C ( 57°F) [RH = 93%]
Pressure (altimeter):29.82 inches Hg (1009.9 mb) [Sea level pressure: 1009.8 mb]
Winds:from the NNE (30 degrees) at 15 MPH (13 knots; 6.7 m/s) gusting to 32 MPH (28 knots; 14.4 m/s)
Visibility: 3 sm ( 5 km)
Ceiling:1000 feet AGL
Clouds: overcast cloud deck at 1000 feet AGL
Weather:RA BR (moderate rain, mist)
QC Flag:automated observation with no human augmentation
Text:KHSE 170951Z AUTO 03014G28KT 360V070 7SM -RA OVC011 15/14 A2982 RMK AO2 PK WND 04034/0908 RAB0858 SLP096 P0000 T01500139
Temperature: 15.0°C ( 59°F)
Dewpoint: 13.9°C ( 57°F) [RH = 93%]
Pressure (altimeter):29.82 inches Hg (1009.9 mb) [Sea level pressure: 1009.6 mb]
Winds:from the NNE (30 degrees) at 16 MPH (14 knots; 7.2 m/s) gusting to 32 MPH (28 knots; 14.4 m/s)
Visibility: 7 sm ( 11 km)
Ceiling:1100 feet AGL
Clouds: overcast cloud deck at 1100 feet AGL
Weather:-RA (light rain)
QC Flag:automated observation with no human augmentation
Text:KHSE 170851Z AUTO 03016G29KT 7SM OVC011 15/13 A2982 RMK AO2 PK WND 04033/0831 RAE37 SLP097 P0000 60002 T01500133 56009
Temperature: 15.0°C ( 59°F)
Dewpoint: 13.3°C ( 56°F) [RH = 90%]
Pressure (altimeter):29.82 inches Hg (1009.9 mb) [Sea level pressure: 1009.7 mb]
Winds:from the NNE (30 degrees) at 18 MPH (16 knots; 8.2 m/s) gusting to 33 MPH (29 knots; 14.9 m/s)
Visibility: 7 sm ( 11 km)
Ceiling:1100 feet AGL
Clouds: overcast cloud deck at 1100 feet AGL
QC Flag:automated observation with no human augmentation
Text:KHSE 170751Z AUTO 03020G32KT 5SM -RA BR OVC011 14/14 A2983 RMK AO2 PK WND 02034/0715 CIG 008V013 SLP100 P0001 T01440139
Temperature: 14.4°C ( 58°F)
Dewpoint: 13.9°C ( 57°F) [RH = 97%]
Pressure (altimeter):29.83 inches Hg (1010.2 mb) [Sea level pressure: 1010.0 mb]
Winds:from the NNE (30 degrees) at 23 MPH (20 knots; 10.3 m/s) gusting to 37 MPH (32 knots; 16.5 m/s)
Visibility: 5 sm ( 8 km)
Ceiling:1100 feet AGL
Clouds: overcast cloud deck at 1100 feet AGL
Weather:-RA BR (light rain, mist)
QC Flag:automated observation with no human augmentation
Text:KHSE 170749Z AUTO 03018G32KT 5SM -RA BR OVC011 14/14 A2983 RMK AO2 PK WND 02034/0715 CIG 008V013 P0001
Temperature: 14.0°C ( 57°F)
Dewpoint: 14.0°C ( 57°F) [RH = 100%]
Pressure (altimeter):29.83 inches Hg (1010.2 mb)
Winds:from the NNE (30 degrees) at 21 MPH (18 knots; 9.3 m/s) gusting to 37 MPH (32 knots; 16.5 m/s)
Visibility: 5 sm ( 8 km)
Ceiling:1100 feet AGL
Clouds: overcast cloud deck at 1100 feet AGL
Weather:-RA BR (light rain, mist)
QC Flag:automated observation with no human augmentation
Text:KHSE 170740Z AUTO 03019G28KT 5SM -RA BR OVC009 14/14 A2983 RMK AO2 PK WND 02034/0715 CIG 008V013 P0001 T01440139
Temperature: 14.4°C ( 58°F)
Dewpoint: 13.9°C ( 57°F) [RH = 97%]
Pressure (altimeter):29.83 inches Hg (1010.2 mb)
Winds:from the NNE (30 degrees) at 22 MPH (19 knots; 9.8 m/s) gusting to 32 MPH (28 knots; 14.4 m/s)
Visibility: 5 sm ( 8 km)
Ceiling:900 feet AGL
Clouds: overcast cloud deck at 900 feet AGL
Weather:-RA BR (light rain, mist)
QC Flag:automated observation with no human augmentation
Text:KHSE 170651Z AUTO 04017G30KT 3SM -RA BR OVC011 14/13 A2985 RMK AO2 PK WND 03033/0621 CIG 008V014 SLP107 P0001 T01440133
Temperature: 14.4°C ( 58°F)
Dewpoint: 13.3°C ( 56°F) [RH = 93%]
Pressure (altimeter):29.85 inches Hg (1010.9 mb) [Sea level pressure: 1010.7 mb]
Winds:from the NE (40 degrees) at 20 MPH (17 knots; 8.7 m/s) gusting to 34 MPH (30 knots; 15.4 m/s)
Visibility: 3 sm ( 5 km)
Ceiling:1100 feet AGL
Clouds: overcast cloud deck at 1100 feet AGL
Weather:-RA BR (light rain, mist)
QC Flag:automated observation with no human augmentation
Text:KHSE 170551Z AUTO 03016G30KT 4SM -RA BR OVC013 14/13 A2986 RMK AO2 PK WND 02033/0515 SLP111 P0001 60001 T01440133 10150 20144 58008
Temperature: 14.4°C ( 58°F)
Dewpoint: 13.3°C ( 56°F) [RH = 93%]
Pressure (altimeter):29.86 inches Hg (1011.3 mb) [Sea level pressure: 1011.1 mb]
Winds:from the NNE (30 degrees) at 18 MPH (16 knots; 8.2 m/s) gusting to 34 MPH (30 knots; 15.4 m/s)
Visibility: 4 sm ( 6 km)
Ceiling:1300 feet AGL
Clouds: overcast cloud deck at 1300 feet AGL
Weather:-RA BR (light rain, mist)
QC Flag:automated observation with no human augmentation
Text:KHSE 170451Z AUTO 04017G32KT 3SM -RA BR OVC014 14/13 A2988 RMK AO2 PK WND 04033/0411 RAB0354E17B25 SLP116 P0000 T01440133 401560139
Temperature: 14.4°C ( 58°F)
Dewpoint: 13.3°C ( 56°F) [RH = 93%]
Pressure (altimeter):29.88 inches Hg (1011.9 mb) [Sea level pressure: 1011.6 mb]
Winds:from the NE (40 degrees) at 20 MPH (17 knots; 8.7 m/s) gusting to 37 MPH (32 knots; 16.5 m/s)
Visibility: 3 sm ( 5 km)
Ceiling:1400 feet AGL
Clouds: overcast cloud deck at 1400 feet AGL
Weather:-RA BR (light rain, mist)
QC Flag:automated observation with no human augmentation
Text:KHSE 170419Z AUTO 04016G33KT 8SM OVC014 15/13 A2988 RMK AO2 PK WND 04033/0411 RAB0354E17 P0000 T01500128
Temperature: 15.0°C ( 59°F)
Dewpoint: 12.8°C ( 55°F) [RH = 87%]
Pressure (altimeter):29.88 inches Hg (1011.9 mb)
Winds:from the NE (40 degrees) at 18 MPH (16 knots; 8.2 m/s) gusting to 38 MPH (33 knots; 17.0 m/s)
Visibility: 8 sm ( 13 km)
Ceiling:1400 feet AGL
Clouds: overcast cloud deck at 1400 feet AGL
QC Flag:automated observation with no human augmentation
Text:KHSE 170351Z AUTO 04017G29KT 6SM BR OVC015 15/13 A2988 RMK AO2 PK WND 04034/0258 RAB07E45 SLP118 P0000 T01500128
Temperature: 15.0°C ( 59°F)
Dewpoint: 12.8°C ( 55°F) [RH = 87%]
Pressure (altimeter):29.88 inches Hg (1011.9 mb) [Sea level pressure: 1011.8 mb]
Winds:from the NE (40 degrees) at 20 MPH (17 knots; 8.7 m/s) gusting to 33 MPH (29 knots; 14.9 m/s)
Visibility: 6 sm ( 10 km)
Ceiling:1500 feet AGL
Clouds: overcast cloud deck at 1500 feet AGL
Weather:BR (mist)
QC Flag:automated observation with no human augmentation
Text:KHSE 170251Z AUTO 04018G32KT 8SM OVC015 15/13 A2989 RMK AO2 PK WND 02038/0219 RAB13E50 SLP120 P0000 60000 T01500128 55004
Temperature: 15.0°C ( 59°F)
Dewpoint: 12.8°C ( 55°F) [RH = 87%]
Pressure (altimeter):29.89 inches Hg (1012.3 mb) [Sea level pressure: 1012.0 mb]
Winds:from the NE (40 degrees) at 21 MPH (18 knots; 9.3 m/s) gusting to 37 MPH (32 knots; 16.5 m/s)
Visibility: 8 sm ( 13 km)
Ceiling:1500 feet AGL
Clouds: overcast cloud deck at 1500 feet AGL
QC Flag:automated observation with no human augmentation
Text:KHSE 170151Z AUTO 04019G37KT 8SM OVC016 15/12 A2988 RMK AO2 PK WND 04038/0114 SLP119 T01500122
Temperature: 15.0°C ( 59°F)
Dewpoint: 12.2°C ( 54°F) [RH = 83%]
Pressure (altimeter):29.88 inches Hg (1011.9 mb) [Sea level pressure: 1011.9 mb]
Winds:from the NE (40 degrees) at 22 MPH (19 knots; 9.8 m/s) gusting to 43 MPH (37 knots; 19.0 m/s)
Visibility: 8 sm ( 13 km)
Ceiling:1600 feet AGL
Clouds: overcast cloud deck at 1600 feet AGL
QC Flag:automated observation with no human augmentation
Text:KHSE 170051Z AUTO 04017G38KT 8SM OVC016 15/12 A2988 RMK AO2 PK WND 04040/0033 RAB2358E12 SLP119 P0000 T01500122
Temperature: 15.0°C ( 59°F)
Dewpoint: 12.2°C ( 54°F) [RH = 83%]
Pressure (altimeter):29.88 inches Hg (1011.9 mb) [Sea level pressure: 1011.9 mb]
Winds:from the NE (40 degrees) at 20 MPH (17 knots; 8.7 m/s) gusting to 44 MPH (38 knots; 19.5 m/s)
Visibility: 8 sm ( 13 km)
Ceiling:1600 feet AGL
Clouds: overcast cloud deck at 1600 feet AGL
QC Flag:automated observation with no human augmentation
Text:KHSE 162351Z AUTO 04019G33KT 7SM OVC015 15/12 A2990 RMK AO2 PK WND 02039/2307 SLP124 60007 T01500122 10150 20139 58002
Temperature: 15.0°C ( 59°F)
Dewpoint: 12.2°C ( 54°F) [RH = 83%]
Pressure (altimeter):29.90 inches Hg (1012.6 mb) [Sea level pressure: 1012.4 mb]
Winds:from the NE (40 degrees) at 22 MPH (19 knots; 9.8 m/s) gusting to 38 MPH (33 knots; 17.0 m/s)
Visibility: 7 sm ( 11 km)
Ceiling:1500 feet AGL
Clouds: overcast cloud deck at 1500 feet AGL
QC Flag:automated observation with no human augmentation
Text:KHSE 162251Z AUTO 04017G33KT 7SM OVC015 15/12 A2990 RMK AO2 PK WND 03041/2226 SLP126 T01500122
Temperature: 15.0°C ( 59°F)
Dewpoint: 12.2°C ( 54°F) [RH = 83%]
Pressure (altimeter):29.90 inches Hg (1012.6 mb) [Sea level pressure: 1012.6 mb]
Winds:from the NE (40 degrees) at 20 MPH (17 knots; 8.7 m/s) gusting to 38 MPH (33 knots; 17.0 m/s)
Visibility: 7 sm ( 11 km)
Ceiling:1500 feet AGL
Clouds: overcast cloud deck at 1500 feet AGL
QC Flag:automated observation with no human augmentation
Text:KHSE 162151Z AUTO 04018G32KT 7SM OVC015 14/12 A2990 RMK AO2 PK WND 04039/2107 SLP126 T01440122
Temperature: 14.4°C ( 58°F)
Dewpoint: 12.2°C ( 54°F) [RH = 87%]
Pressure (altimeter):29.90 inches Hg (1012.6 mb) [Sea level pressure: 1012.6 mb]
Winds:from the NE (40 degrees) at 21 MPH (18 knots; 9.3 m/s) gusting to 37 MPH (32 knots; 16.5 m/s)
Visibility: 7 sm ( 11 km)
Ceiling:1500 feet AGL
Clouds: overcast cloud deck at 1500 feet AGL
QC Flag:automated observation with no human augmentation
Text:KHSE 162051Z AUTO 04017G34KT 6SM BR OVC016 14/13 A2990 RMK AO2 PK WND 02034/2045 RAE1955B06E22 SLP125 P0000 60007 T01440128 55004
Temperature: 14.4°C ( 58°F)
Dewpoint: 12.8°C ( 55°F) [RH = 90%]
Pressure (altimeter):29.90 inches Hg (1012.6 mb) [Sea level pressure: 1012.5 mb]
Winds:from the NE (40 degrees) at 20 MPH (17 knots; 8.7 m/s) gusting to 39 MPH (34 knots; 17.5 m/s)
Visibility: 6 sm ( 10 km)
Ceiling:1600 feet AGL
Clouds: overcast cloud deck at 1600 feet AGL
Weather:BR (mist)
QC Flag:automated observation with no human augmentation
Text:KHSE 162001Z AUTO 04016G30KT 5SM BR BKN016 OVC021 14/13 A2989 RMK AO2 PK WND 03030/1956 RAE1955 P0000 T01390128
Temperature: 13.9°C ( 57°F)
Dewpoint: 12.8°C ( 55°F) [RH = 93%]
Pressure (altimeter):29.89 inches Hg (1012.3 mb)
Winds:from the NE (40 degrees) at 18 MPH (16 knots; 8.2 m/s) gusting to 34 MPH (30 knots; 15.4 m/s)
Visibility: 5 sm ( 8 km)
Ceiling:1600 feet AGL
Clouds: broken clouds at 1600 feet AGL, overcast cloud deck at 2100 feet AGL
Weather:BR (mist)
QC Flag:automated observation with no human augmentation
Text:KHSE 161951Z AUTO 03019G32KT 5SM -RA BR BKN014 OVC022 14/13 A2989 RMK AO2 PK WND 04033/1912 SLP122 P0004 T01390128
Temperature: 13.9°C ( 57°F)
Dewpoint: 12.8°C ( 55°F) [RH = 93%]
Pressure (altimeter):29.89 inches Hg (1012.3 mb) [Sea level pressure: 1012.2 mb]
Winds:from the NNE (30 degrees) at 22 MPH (19 knots; 9.8 m/s) gusting to 37 MPH (32 knots; 16.5 m/s)
Visibility: 5 sm ( 8 km)
Ceiling:1400 feet AGL
Clouds: broken clouds at 1400 feet AGL, overcast cloud deck at 2200 feet AGL
Weather:-RA BR (light rain, mist)
QC Flag:automated observation with no human augmentation
Text:KHSE 161948Z AUTO 04014G32KT 4SM -RA BR BKN014 OVC019 14/13 A2989 RMK AO2 PK WND 04033/1912 P0004
Temperature: 14.0°C ( 57°F)
Dewpoint: 13.0°C ( 55°F) [RH = 94%]
Pressure (altimeter):29.89 inches Hg (1012.3 mb)
Winds:from the NE (40 degrees) at 16 MPH (14 knots; 7.2 m/s) gusting to 37 MPH (32 knots; 16.5 m/s)
Visibility: 4 sm ( 6 km)
Ceiling:1400 feet AGL
Clouds: broken clouds at 1400 feet AGL, overcast cloud deck at 1900 feet AGL
Weather:-RA BR (light rain, mist)
QC Flag:automated observation with no human augmentation
Text:KHSE 161933Z AUTO 04014G30KT 4SM -RA BR BKN015 OVC023 14/13 A2989 RMK AO2 PK WND 04033/1912 P0003 T01390133
Temperature: 13.9°C ( 57°F)
Dewpoint: 13.3°C ( 56°F) [RH = 96%]
Pressure (altimeter):29.89 inches Hg (1012.3 mb)
Winds:from the NE (40 degrees) at 16 MPH (14 knots; 7.2 m/s) gusting to 34 MPH (30 knots; 15.4 m/s)
Visibility: 4 sm ( 6 km)
Ceiling:1500 feet AGL
Clouds: broken clouds at 1500 feet AGL, overcast cloud deck at 2300 feet AGL
Weather:-RA BR (light rain, mist)
QC Flag:automated observation with no human augmentation
Text:KHSE 161904Z AUTO 04016G28KT 2SM -RA BR OVC016 14/13 A2991 RMK AO2 PK WND 04028/1901 P0001 T01440133
Temperature: 14.4°C ( 58°F)
Dewpoint: 13.3°C ( 56°F) [RH = 93%]
Pressure (altimeter):29.91 inches Hg (1013.0 mb)
Winds:from the NE (40 degrees) at 18 MPH (16 knots; 8.2 m/s) gusting to 32 MPH (28 knots; 14.4 m/s)
Visibility: 2.00 sm ( 3.22 km)
Ceiling:1600 feet AGL
Clouds: overcast cloud deck at 1600 feet AGL
Weather:-RA BR (light rain, mist)
QC Flag:automated observation with no human augmentation
Text:KHSE 161851Z AUTO 04014G27KT 360V070 5SM -RA BR BKN014 OVC020 14/13 A2991 RMK AO2 PK WND 03034/1825 SLP130 P0003 T01440128
Temperature: 14.4°C ( 58°F)
Dewpoint: 12.8°C ( 55°F) [RH = 90%]
Pressure (altimeter):29.91 inches Hg (1013.0 mb) [Sea level pressure: 1013.0 mb]
Winds:from the NE (40 degrees) at 16 MPH (14 knots; 7.2 m/s) gusting to 31 MPH (27 knots; 13.9 m/s)
Visibility: 5 sm ( 8 km)
Ceiling:1400 feet AGL
Clouds: broken clouds at 1400 feet AGL, overcast cloud deck at 2000 feet AGL
Weather:-RA BR (light rain, mist)
QC Flag:automated observation with no human augmentation
Text:KHSE 161828Z AUTO 03017G34KT 5SM -RA BR OVC014 14/13 A2992 RMK AO2 PK WND 03034/1825 P0003 T01390133
Temperature: 13.9°C ( 57°F)
Dewpoint: 13.3°C ( 56°F) [RH = 96%]
Pressure (altimeter):29.92 inches Hg (1013.3 mb)
Winds:from the NNE (30 degrees) at 20 MPH (17 knots; 8.7 m/s) gusting to 39 MPH (34 knots; 17.5 m/s)
Visibility: 5 sm ( 8 km)
Ceiling:1400 feet AGL
Clouds: overcast cloud deck at 1400 feet AGL
Weather:-RA BR (light rain, mist)
QC Flag:automated observation with no human augmentation
Text:KHSE 161820Z AUTO 04014G29KT 3SM -RA BR SCT013 OVC017 14/13 A2991 RMK AO2 PK WND 03030/1809 P0003 T01440133
Temperature: 14.4°C ( 58°F)
Dewpoint: 13.3°C ( 56°F) [RH = 93%]
Pressure (altimeter):29.91 inches Hg (1013.0 mb)
Winds:from the NE (40 degrees) at 16 MPH (14 knots; 7.2 m/s) gusting to 33 MPH (29 knots; 14.9 m/s)
Visibility: 3 sm ( 5 km)
Ceiling:1700 feet AGL
Clouds: scattered clouds at 1300 feet AGL, overcast cloud deck at 1700 feet AGL
Weather:-RA BR (light rain, mist)
QC Flag:automated observation with no human augmentation
Text:KHSE 161807Z AUTO 04015G28KT 2SM -RA BR BKN012 OVC018 14/13 A2991 RMK AO2 PK WND 03028/1758 P0002 T01440133
Temperature: 14.4°C ( 58°F)
Dewpoint: 13.3°C ( 56°F) [RH = 93%]
Pressure (altimeter):29.91 inches Hg (1013.0 mb)
Winds:from the NE (40 degrees) at 17 MPH (15 knots; 7.7 m/s) gusting to 32 MPH (28 knots; 14.4 m/s)
Visibility: 2.00 sm ( 3.22 km)
Ceiling:1200 feet AGL
Clouds: broken clouds at 1200 feet AGL, overcast cloud deck at 1800 feet AGL
Weather:-RA BR (light rain, mist)
QC Flag:automated observation with no human augmentation
Text:KHSE 161751Z AUTO 04014G32KT 2 1/2SM RA BR OVC016 15/13 A2992 RMK AO2 PK WND 04032/1747 RAB1654E12B37 SLP132 P0001 60003 T01500133 10156 20139 58014
Temperature: 15.0°C ( 59°F)
Dewpoint: 13.3°C ( 56°F) [RH = 90%]
Pressure (altimeter):29.92 inches Hg (1013.3 mb) [Sea level pressure: 1013.2 mb]
Winds:from the NE (40 degrees) at 16 MPH (14 knots; 7.2 m/s) gusting to 37 MPH (32 knots; 16.5 m/s)
Visibility: 2.50 sm ( 4.02 km)
Ceiling:1600 feet AGL
Clouds: overcast cloud deck at 1600 feet AGL
Weather:RA BR (moderate rain, mist)
QC Flag:automated observation with no human augmentation
Text:KHSE 161651Z AUTO 04016G32KT 7SM OVC016 15/13 A2995 RMK AO2 PK WND 05033/1628 RAE10 SLP141 P0000 T01500128
Temperature: 15.0°C ( 59°F)
Dewpoint: 12.8°C ( 55°F) [RH = 87%]
Pressure (altimeter):29.95 inches Hg (1014.3 mb) [Sea level pressure: 1014.1 mb]
Winds:from the NE (40 degrees) at 18 MPH (16 knots; 8.2 m/s) gusting to 37 MPH (32 knots; 16.5 m/s)
Visibility: 7 sm ( 11 km)
Ceiling:1600 feet AGL
Clouds: overcast cloud deck at 1600 feet AGL
QC Flag:automated observation with no human augmentation
Text:KHSE 161630Z AUTO 04016G33KT 7SM OVC016 15/13 A2996 RMK AO2 PK WND 05033/1628 RAE10 P0000 T01500128
Temperature: 15.0°C ( 59°F)
Dewpoint: 12.8°C ( 55°F) [RH = 87%]
Pressure (altimeter):29.96 inches Hg (1014.6 mb)
Winds:from the NE (40 degrees) at 18 MPH (16 knots; 8.2 m/s) gusting to 38 MPH (33 knots; 17.0 m/s)
Visibility: 7 sm ( 11 km)
Ceiling:1600 feet AGL
Clouds: overcast cloud deck at 1600 feet AGL
QC Flag:automated observation with no human augmentation
Text:KHSE 161609Z AUTO 04014G30KT 6SM -RA BR OVC014 15/13 A2996 RMK AO2 PK WND 04030/1601 P0000 T01500133
Temperature: 15.0°C ( 59°F)
Dewpoint: 13.3°C ( 56°F) [RH = 90%]
Pressure (altimeter):29.96 inches Hg (1014.6 mb)
Winds:from the NE (40 degrees) at 16 MPH (14 knots; 7.2 m/s) gusting to 34 MPH (30 knots; 15.4 m/s)
Visibility: 6 sm ( 10 km)
Ceiling:1400 feet AGL
Clouds: overcast cloud deck at 1400 feet AGL
Weather:-RA BR (light rain, mist)
QC Flag:automated observation with no human augmentation
Text:KHSE 161551Z AUTO 04017G29KT 3SM -RA BR OVC016 15/13 A2997 RMK AO2 PK WND 05033/1529 RAB41 SLP147 P0001 T01500133
Temperature: 15.0°C ( 59°F)
Dewpoint: 13.3°C ( 56°F) [RH = 90%]
Pressure (altimeter):29.97 inches Hg (1015.0 mb) [Sea level pressure: 1014.7 mb]
Winds:from the NE (40 degrees) at 20 MPH (17 knots; 8.7 m/s) gusting to 33 MPH (29 knots; 14.9 m/s)
Visibility: 3 sm ( 5 km)
Ceiling:1600 feet AGL
Clouds: overcast cloud deck at 1600 feet AGL
Weather:-RA BR (light rain, mist)
QC Flag:automated observation with no human augmentation
Text:KHSE 161451Z AUTO 04017G30KT 9SM OVC018 16/13 A2996 RMK AO2 PK WND 04035/1438 RAE03B23E34 SLP146 P0000 60001 T01560128 53006
Temperature: 15.6°C ( 60°F)
Dewpoint: 12.8°C ( 55°F) [RH = 83%]
Pressure (altimeter):29.96 inches Hg (1014.6 mb) [Sea level pressure: 1014.6 mb]
Winds:from the NE (40 degrees) at 20 MPH (17 knots; 8.7 m/s) gusting to 34 MPH (30 knots; 15.4 m/s)
Visibility: 9 sm ( 14 km)
Ceiling:1800 feet AGL
Clouds: overcast cloud deck at 1800 feet AGL
QC Flag:automated observation with no human augmentation
Text:KHSE 161351Z AUTO 04015G29KT 4SM -RA BR OVC017 14/13 A2995 RMK AO2 PK WND 04029/1342 RAE1257B33 SLP142 P0000 T01440128
Temperature: 14.4°C ( 58°F)
Dewpoint: 12.8°C ( 55°F) [RH = 90%]
Pressure (altimeter):29.95 inches Hg (1014.3 mb) [Sea level pressure: 1014.2 mb]
Winds:from the NE (40 degrees) at 17 MPH (15 knots; 7.7 m/s) gusting to 33 MPH (29 knots; 14.9 m/s)
Visibility: 4 sm ( 6 km)
Ceiling:1700 feet AGL
Clouds: overcast cloud deck at 1700 feet AGL
Weather:-RA BR (light rain, mist)
QC Flag:automated observation with no human augmentation
Text:KHSE 161316Z AUTO 04013G27KT 7SM OVC015 14/13 A2994 RMK AO2 PK WND 03028/1257 RAE1257 P0000 T01440128
Temperature: 14.4°C ( 58°F)
Dewpoint: 12.8°C ( 55°F) [RH = 90%]
Pressure (altimeter):29.94 inches Hg (1014.0 mb)
Winds:from the NE (40 degrees) at 15 MPH (13 knots; 6.7 m/s) gusting to 31 MPH (27 knots; 13.9 m/s)
Visibility: 7 sm ( 11 km)
Ceiling:1500 feet AGL
Clouds: overcast cloud deck at 1500 feet AGL
QC Flag:automated observation with no human augmentation
Text:KHSE 161251Z AUTO 03016G29KT 5SM -RA BR OVC013 14/13 A2994 RMK AO2 PK WND 04031/1237 RAE02B22 SLP139 P0001 T01390133
Temperature: 13.9°C ( 57°F)
Dewpoint: 13.3°C ( 56°F) [RH = 96%]
Pressure (altimeter):29.94 inches Hg (1014.0 mb) [Sea level pressure: 1013.9 mb]
Winds:from the NNE (30 degrees) at 18 MPH (16 knots; 8.2 m/s) gusting to 33 MPH (29 knots; 14.9 m/s)
Visibility: 5 sm ( 8 km)
Ceiling:1300 feet AGL
Clouds: overcast cloud deck at 1300 feet AGL
Weather:-RA BR (light rain, mist)
QC Flag:automated observation with no human augmentation
Text:KHSE 161151Z AUTO 03011G24KT 7SM -RA OVC013 14/13 A2995 RMK AO2 PK WND 04028/1131 RAB12 SLP140 P0001 60012 70228 T01390133 10150 20139 53016
Temperature: 13.9°C ( 57°F)
Dewpoint: 13.3°C ( 56°F) [RH = 96%]
Pressure (altimeter):29.95 inches Hg (1014.3 mb) [Sea level pressure: 1014.0 mb]
Winds:from the NNE (30 degrees) at 13 MPH (11 knots; 5.7 m/s) gusting to 28 MPH (24 knots; 12.3 m/s)
Visibility: 7 sm ( 11 km)
Ceiling:1300 feet AGL
Clouds: overcast cloud deck at 1300 feet AGL
Weather:-RA (light rain)
QC Flag:automated observation with no human augmentation
Text:KHSE 161130Z AUTO 03010G25KT 350V060 6SM -RA BR OVC014 14/13 A2994 RMK AO2 RAB12 P0001 T01440133
Temperature: 14.4°C ( 58°F)
Dewpoint: 13.3°C ( 56°F) [RH = 93%]
Pressure (altimeter):29.94 inches Hg (1014.0 mb)
Winds:from the NNE (30 degrees) at 12 MPH (10 knots; 5.1 m/s) gusting to 29 MPH (25 knots; 12.9 m/s)
Visibility: 6 sm ( 10 km)
Ceiling:1400 feet AGL
Clouds: overcast cloud deck at 1400 feet AGL
Weather:-RA BR (light rain, mist)
QC Flag:automated observation with no human augmentation
Text:KHSE 161051Z AUTO 04013G26KT 10SM OVC015 14/13 A2993 RMK AO2 PK WND 03029/1004 SLP135 T01440128
Temperature: 14.4°C ( 58°F)
Dewpoint: 12.8°C ( 55°F) [RH = 90%]
Pressure (altimeter):29.93 inches Hg (1013.6 mb) [Sea level pressure: 1013.5 mb]
Winds:from the NE (40 degrees) at 15 MPH (13 knots; 6.7 m/s) gusting to 30 MPH (26 knots; 13.4 m/s)
Visibility:10 or more sm (16+ km)
Ceiling:1500 feet AGL
Clouds: overcast cloud deck at 1500 feet AGL
QC Flag:automated observation with no human augmentation
Text:KHSE 160951Z AUTO 03013G25KT 8SM OVC010 14/13 A2990 RMK AO2 PK WND 03030/0904 RAE08 SLP125 P0000 T01390128
Temperature: 13.9°C ( 57°F)
Dewpoint: 12.8°C ( 55°F) [RH = 93%]
Pressure (altimeter):29.90 inches Hg (1012.6 mb) [Sea level pressure: 1012.5 mb]
Winds:from the NNE (30 degrees) at 15 MPH (13 knots; 6.7 m/s) gusting to 29 MPH (25 knots; 12.9 m/s)
Visibility: 8 sm ( 13 km)
Ceiling:1000 feet AGL
Clouds: overcast cloud deck at 1000 feet AGL
QC Flag:automated observation with no human augmentation